sensor_id;sensor_type;location;lat;lon;timestamp;pressure;altitude;pressure_sealevel;temperature;humidity
38612;BME280;24368;52.156;20.788;2023-04-08T00:01:28;100972.46;;;5.34;100.00
38612;BME280;24368;52.156;20.788;2023-04-08T00:06:29;100976.12;;;5.21;100.00
38612;BME280;24368;52.156;20.788;2023-04-08T00:11:31;100973.83;;;5.08;100.00
38612;BME280;24368;52.156;20.788;2023-04-08T00:21:55;100982.59;;;4.90;100.00
38612;BME280;24368;52.156;20.788;2023-04-08T00:26:56;100983.89;;;4.86;100.00
38612;BME280;24368;52.156;20.788;2023-04-08T00:31:57;100986.33;;;4.97;100.00
38612;BME280;24368;52.156;20.788;2023-04-08T00:36:59;100983.70;;;4.89;100.00
38612;BME280;24368;52.156;20.788;2023-04-08T00:42:00;100993.38;;;4.85;100.00
38612;BME280;24368;52.156;20.788;2023-04-08T00:47:02;101001.77;;;4.90;100.00
38612;BME280;24368;52.156;20.788;2023-04-08T00:52:04;101000.94;;;4.82;100.00
38612;BME280;24368;52.156;20.788;2023-04-08T00:57:05;101003.30;;;4.73;100.00
38612;BME280;24368;52.156;20.788;2023-04-08T01:02:35;101007.40;;;4.63;100.00
38612;BME280;24368;52.156;20.788;2023-04-08T01:07:49;101014.04;;;4.52;100.00
38612;BME280;24368;52.156;20.788;2023-04-08T01:12:53;101022.76;;;4.49;100.00
38612;BME280;24368;52.156;20.788;2023-04-08T01:17:56;101027.42;;;4.55;100.00
38612;BME280;24368;52.156;20.788;2023-04-08T01:23:53;101032.12;;;4.50;100.00
38612;BME280;24368;52.156;20.788;2023-04-08T01:28:28;101026.86;;;4.23;100.00
38612;BME280;24368;52.156;20.788;2023-04-08T01:33:31;101030.05;;;4.11;100.00
38612;BME280;24368;52.156;20.788;2023-04-08T01:38:33;101030.23;;;4.11;100.00
38612;BME280;24368;52.156;20.788;2023-04-08T01:43:37;101028.95;;;4.29;100.00
38612;BME280;24368;52.156;20.788;2023-04-08T01:48:39;101033.61;;;4.30;100.00
38612;BME280;24368;52.156;20.788;2023-04-08T01:53:41;101039.73;;;4.22;100.00
38612;BME280;24368;52.156;20.788;2023-04-08T01:58:51;101047.46;;;4.17;100.00
38612;BME280;24368;52.156;20.788;2023-04-08T02:03:55;101050.45;;;4.06;100.00
38612;BME280;24368;52.156;20.788;2023-04-08T02:08:58;101043.52;;;3.88;100.00
38612;BME280;24368;52.156;20.788;2023-04-08T02:14:00;101038.38;;;3.76;100.00
38612;BME280;24368;52.156;20.788;2023-04-08T02:19:07;101051.19;;;3.68;100.00
38612;BME280;24368;52.156;20.788;2023-04-08T02:24:12;101051.52;;;3.60;100.00
38612;BME280;24368;52.156;20.788;2023-04-08T02:29:14;101056.94;;;3.62;100.00
38612;BME280;24368;52.156;20.788;2023-04-08T02:34:18;101060.27;;;3.56;100.00
38612;BME280;24368;52.156;20.788;2023-04-08T02:39:30;101066.74;;;3.62;100.00
38612;BME280;24368;52.156;20.788;2023-04-08T02:44:31;101072.28;;;3.62;100.00
38612;BME280;24368;52.156;20.788;2023-04-08T02:49:32;101074.96;;;3.61;100.00
38612;BME280;24368;52.156;20.788;2023-04-08T02:54:33;101083.50;;;3.52;100.00
38612;BME280;24368;52.156;20.788;2023-04-08T02:59:35;101087.48;;;3.50;100.00
38612;BME280;24368;52.156;20.788;2023-04-08T03:04:38;101097.15;;;3.48;100.00
38612;BME280;24368;52.156;20.788;2023-04-08T03:09:40;101104.36;;;3.50;100.00
38612;BME280;24368;52.156;20.788;2023-04-08T03:14:42;101106.61;;;3.53;100.00
38612;BME280;24368;52.156;20.788;2023-04-08T03:19:43;101107.09;;;3.57;100.00
38612;BME280;24368;52.156;20.788;2023-04-08T03:24:44;101117.17;;;3.42;100.00
38612;BME280;24368;52.156;20.788;2023-04-08T03:29:45;101122.88;;;3.26;100.00
38612;BME280;24368;52.156;20.788;2023-04-08T03:34:46;101122.89;;;3.16;100.00
38612;BME280;24368;52.156;20.788;2023-04-08T03:39:49;101126.31;;;3.14;100.00
38612;BME280;24368;52.156;20.788;2023-04-08T03:44:50;101128.73;;;3.05;100.00
38612;BME280;24368;52.156;20.788;2023-04-08T03:49:52;101136.13;;;2.94;100.00
38612;BME280;24368;52.156;20.788;2023-04-08T03:54:54;101135.09;;;2.85;100.00
38612;BME280;24368;52.156;20.788;2023-04-08T03:59:55;101141.61;;;2.77;100.00
38612;BME280;24368;52.156;20.788;2023-04-08T04:04:56;101144.68;;;2.72;100.00
38612;BME280;24368;52.156;20.788;2023-04-08T04:09:57;101147.37;;;2.70;100.00
38612;BME280;24368;52.156;20.788;2023-04-08T04:14:58;101150.20;;;2.69;100.00
38612;BME280;24368;52.156;20.788;2023-04-08T04:20:03;101151.84;;;2.62;100.00
38612;BME280;24368;52.156;20.788;2023-04-08T04:25:04;101151.65;;;2.62;100.00
38612;BME280;24368;52.156;20.788;2023-04-08T04:30:07;101157.59;;;2.58;100.00
38612;BME280;24368;52.156;20.788;2023-04-08T04:35:10;101161.64;;;2.57;100.00
38612;BME280;24368;52.156;20.788;2023-04-08T04:40:11;101167.16;;;2.55;100.00
38612;BME280;24368;52.156;20.788;2023-04-08T04:45:13;101176.39;;;2.61;100.00
38612;BME280;24368;52.156;20.788;2023-04-08T04:50:14;101182.52;;;2.70;100.00
38612;BME280;24368;52.156;20.788;2023-04-08T04:55:15;101189.66;;;2.83;100.00
38612;BME280;24368;52.156;20.788;2023-04-08T05:00:17;101192.25;;;2.93;100.00
38612;BME280;24368;52.156;20.788;2023-04-08T05:05:18;101191.53;;;3.06;100.00
38612;BME280;24368;52.156;20.788;2023-04-08T05:10:19;101193.52;;;3.17;100.00
38612;BME280;24368;52.156;20.788;2023-04-08T05:15:20;101198.27;;;3.19;100.00
38612;BME280;24368;52.156;20.788;2023-04-08T05:20:21;101199.30;;;3.23;100.00
38612;BME280;24368;52.156;20.788;2023-04-08T05:25:22;101201.89;;;3.29;100.00
38612;BME280;24368;52.156;20.788;2023-04-08T05:30:23;101210.95;;;3.41;100.00
38612;BME280;24368;52.156;20.788;2023-04-08T05:35:25;101210.40;;;3.54;100.00
38612;BME280;24368;52.156;20.788;2023-04-08T05:40:26;101215.77;;;3.67;100.00
38612;BME280;24368;52.156;20.788;2023-04-08T05:45:28;101218.80;;;3.72;100.00
38612;BME280;24368;52.156;20.788;2023-04-08T05:50:29;101219.51;;;3.78;100.00
38612;BME280;24368;52.156;20.788;2023-04-08T05:55:30;101224.20;;;3.81;100.00
38612;BME280;24368;52.156;20.788;2023-04-08T06:00:31;101223.52;;;3.84;100.00
38612;BME280;24368;52.156;20.788;2023-04-08T06:05:32;101227.34;;;3.90;100.00
38612;BME280;24368;52.156;20.788;2023-04-08T06:10:33;101235.70;;;3.99;100.00
38612;BME280;24368;52.156;20.788;2023-04-08T06:15:34;101236.59;;;4.13;100.00
38612;BME280;24368;52.156;20.788;2023-04-08T06:20:36;101237.63;;;4.31;100.00
38612;BME280;24368;52.156;20.788;2023-04-08T06:25:37;101242.94;;;4.47;100.00
38612;BME280;24368;52.156;20.788;2023-04-08T06:30:38;101244.17;;;4.53;100.00
38612;BME280;24368;52.156;20.788;2023-04-08T06:35:39;101241.58;;;4.55;100.00
38612;BME280;24368;52.156;20.788;2023-04-08T06:40:41;101240.05;;;4.54;100.00
38612;BME280;24368;52.156;20.788;2023-04-08T06:45:42;101244.44;;;4.57;100.00
38612;BME280;24368;52.156;20.788;2023-04-08T06:50:43;101243.38;;;4.63;100.00
38612;BME280;24368;52.156;20.788;2023-04-08T06:55:44;101249.17;;;4.79;100.00
38612;BME280;24368;52.156;20.788;2023-04-08T07:00:45;101248.83;;;4.99;100.00
38612;BME280;24368;52.156;20.788;2023-04-08T07:05:47;101263.70;;;5.12;100.00
38612;BME280;24368;52.156;20.788;2023-04-08T07:10:48;101265.60;;;5.27;100.00
38612;BME280;24368;52.156;20.788;2023-04-08T07:15:49;101268.20;;;5.40;100.00
38612;BME280;24368;52.156;20.788;2023-04-08T07:20:52;101269.49;;;5.45;100.00
38612;BME280;24368;52.156;20.788;2023-04-08T07:25:53;101270.46;;;5.54;100.00
38612;BME280;24368;52.156;20.788;2023-04-08T07:30:54;101274.08;;;5.63;100.00
38612;BME280;24368;52.156;20.788;2023-04-08T07:35:56;101273.70;;;5.72;100.00
38612;BME280;24368;52.156;20.788;2023-04-08T07:40:57;101274.81;;;5.92;100.00
38612;BME280;24368;52.156;20.788;2023-04-08T07:46:00;101276.62;;;6.13;100.00
38612;BME280;24368;52.156;20.788;2023-04-08T07:51:08;101274.60;;;6.22;100.00
38612;BME280;24368;52.156;20.788;2023-04-08T07:56:11;101275.02;;;6.36;100.00
38612;BME280;24368;52.156;20.788;2023-04-08T08:01:20;101271.54;;;6.39;100.00
38612;BME280;24368;52.156;20.788;2023-04-08T08:06:21;101277.34;;;6.44;100.00
38612;BME280;24368;52.156;20.788;2023-04-08T08:11:23;101278.39;;;6.56;100.00
38612;BME280;24368;52.156;20.788;2023-04-08T08:16:27;101277.58;;;6.81;100.00
38612;BME280;24368;52.156;20.788;2023-04-08T08:21:28;101277.95;;;6.98;99.73
38612;BME280;24368;52.156;20.788;2023-04-08T08:26:30;101273.80;;;7.04;99.98
38612;BME280;24368;52.156;20.788;2023-04-08T08:31:34;101272.20;;;7.27;98.72
38612;BME280;24368;52.156;20.788;2023-04-08T08:36:35;101264.19;;;7.33;99.45
38612;BME280;24368;52.156;20.788;2023-04-08T08:41:36;101265.80;;;7.40;99.77
38612;BME280;24368;52.156;20.788;2023-04-08T08:46:44;101265.84;;;7.42;99.89
38612;BME280;24368;52.156;20.788;2023-04-08T08:51:47;101263.84;;;7.50;98.75
38612;BME280;24368;52.156;20.788;2023-04-08T08:56:49;101269.02;;;7.54;99.20
38612;BME280;24368;52.156;20.788;2023-04-08T09:01:50;101269.92;;;7.56;98.82
38612;BME280;24368;52.156;20.788;2023-04-08T09:07:10;101271.63;;;7.80;99.42
38612;BME280;24368;52.156;20.788;2023-04-08T09:12:13;101277.09;;;7.90;98.11
38612;BME280;24368;52.156;20.788;2023-04-08T09:17:15;101272.87;;;7.90;98.26
38612;BME280;24368;52.156;20.788;2023-04-08T09:22:17;101277.75;;;7.92;98.31
38612;BME280;24368;52.156;20.788;2023-04-08T09:27:32;101276.09;;;8.26;96.85
38612;BME280;24368;52.156;20.788;2023-04-08T09:32:53;101277.20;;;8.61;96.37
38612;BME280;24368;52.156;20.788;2023-04-08T09:37:54;101279.88;;;8.78;94.61
38612;BME280;24368;52.156;20.788;2023-04-08T09:42:56;101279.41;;;8.88;92.36
38612;BME280;24368;52.156;20.788;2023-04-08T09:48:05;101278.27;;;9.03;92.27
38612;BME280;24368;52.156;20.788;2023-04-08T09:53:26;101279.93;;;9.11;92.80
38612;BME280;24368;52.156;20.788;2023-04-08T09:58:37;101272.30;;;9.21;92.95
38612;BME280;24368;52.156;20.788;2023-04-08T10:03:47;101273.11;;;9.36;90.93
38612;BME280;24368;52.156;20.788;2023-04-08T10:08:49;101271.74;;;9.55;90.02
38612;BME280;24368;52.156;20.788;2023-04-08T10:13:51;101268.79;;;9.68;89.60
38612;BME280;24368;52.156;20.788;2023-04-08T10:18:53;101264.15;;;9.67;89.73
38612;BME280;24368;52.156;20.788;2023-04-08T10:23:58;101259.23;;;9.84;88.21
38612;BME280;24368;52.156;20.788;2023-04-08T10:34:22;101254.33;;;10.28;84.84
38612;BME280;24368;52.156;20.788;2023-04-08T10:39:25;101252.85;;;10.64;81.97
38612;BME280;24368;52.156;20.788;2023-04-08T10:44:27;101246.66;;;10.76;80.74
38612;BME280;24368;52.156;20.788;2023-04-08T10:49:32;101245.83;;;10.90;80.23
38612;BME280;24368;52.156;20.788;2023-04-08T10:54:35;101236.63;;;11.16;81.22
38612;BME280;24368;52.156;20.788;2023-04-08T10:59:37;101230.70;;;11.43;79.54
38612;BME280;24368;52.156;20.788;2023-04-08T11:04:40;101225.93;;;11.80;78.42
38612;BME280;24368;52.156;20.788;2023-04-08T11:09:42;101220.22;;;12.08;76.09
38612;BME280;24368;52.156;20.788;2023-04-08T11:14:43;101218.59;;;12.46;73.90
38612;BME280;24368;52.156;20.788;2023-04-08T11:19:45;101217.23;;;12.69;72.50
38612;BME280;24368;52.156;20.788;2023-04-08T11:24:46;101214.92;;;12.97;71.98
38612;BME280;24368;52.156;20.788;2023-04-08T11:29:48;101218.15;;;13.29;66.41
38612;BME280;24368;52.156;20.788;2023-04-08T11:34:52;101216.20;;;14.00;65.17
38612;BME280;24368;52.156;20.788;2023-04-08T11:39:56;101212.70;;;14.24;65.16
38612;BME280;24368;52.156;20.788;2023-04-08T11:44:57;101203.89;;;14.38;66.14
38612;BME280;24368;52.156;20.788;2023-04-08T11:49:59;101206.98;;;14.83;60.47
38612;BME280;24368;52.156;20.788;2023-04-08T11:55:01;101203.29;;;15.25;59.79
38612;BME280;24368;52.156;20.788;2023-04-08T12:00:07;101198.36;;;16.34;53.94
38612;BME280;24368;52.156;20.788;2023-04-08T12:05:09;101191.64;;;17.04;54.38
38612;BME280;24368;52.156;20.788;2023-04-08T12:10:10;101191.27;;;15.18;59.21
38612;BME280;24368;52.156;20.788;2023-04-08T12:15:12;101194.95;;;14.40;58.84
38612;BME280;24368;52.156;20.788;2023-04-08T12:20:13;101190.30;;;17.04;52.49
38612;BME280;24368;52.156;20.788;2023-04-08T12:25:16;101180.80;;;18.85;47.51
38612;BME280;24368;52.156;20.788;2023-04-08T12:30:18;101174.61;;;19.92;44.57
38612;BME280;24368;52.156;20.788;2023-04-08T12:35:19;101169.08;;;20.04;43.50
38612;BME280;24368;52.156;20.788;2023-04-08T12:40:20;101163.57;;;21.11;41.93
38612;BME280;24368;52.156;20.788;2023-04-08T12:45:21;101160.09;;;20.24;43.89
38612;BME280;24368;52.156;20.788;2023-04-08T12:50:22;101160.30;;;16.37;50.61
38612;BME280;24368;52.156;20.788;2023-04-08T12:55:23;101160.86;;;15.23;54.84
38612;BME280;24368;52.156;20.788;2023-04-08T13:00:27;101161.73;;;15.35;55.03
38612;BME280;24368;52.156;20.788;2023-04-08T13:05:28;101153.55;;;19.13;46.09
38612;BME280;24368;52.156;20.788;2023-04-08T13:10:29;101142.49;;;19.78;42.97
38612;BME280;24368;52.156;20.788;2023-04-08T13:15:30;101137.48;;;21.81;39.10
38612;BME280;24368;52.156;20.788;2023-04-08T13:20:31;101136.10;;;20.89;38.85
38612;BME280;24368;52.156;20.788;2023-04-08T13:25:33;101132.89;;;20.54;39.56
38612;BME280;24368;52.156;20.788;2023-04-08T13:30:34;101135.23;;;17.87;43.60
38612;BME280;24368;52.156;20.788;2023-04-08T13:35:35;101132.05;;;16.51;46.73
38612;BME280;24368;52.156;20.788;2023-04-08T13:40:36;101121.33;;;16.94;46.99
38612;BME280;24368;52.156;20.788;2023-04-08T13:45:38;101116.52;;;16.37;46.78
38612;BME280;24368;52.156;20.788;2023-04-08T13:50:40;101117.14;;;15.47;47.55
38612;BME280;24368;52.156;20.788;2023-04-08T13:55:41;101116.00;;;15.28;48.25
38612;BME280;24368;52.156;20.788;2023-04-08T14:00:42;101114.46;;;16.54;45.73
38612;BME280;24368;52.156;20.788;2023-04-08T14:05:44;101112.70;;;17.82;43.95
38612;BME280;24368;52.156;20.788;2023-04-08T14:10:45;101110.41;;;17.46;44.22
38612;BME280;24368;52.156;20.788;2023-04-08T14:15:47;101109.89;;;16.27;47.19
38612;BME280;24368;52.156;20.788;2023-04-08T14:20:49;101107.64;;;15.38;48.92
38612;BME280;24368;52.156;20.788;2023-04-08T14:25:50;101104.90;;;14.86;49.96
38612;BME280;24368;52.156;20.788;2023-04-08T14:30:52;101100.64;;;14.66;51.59
38612;BME280;24368;52.156;20.788;2023-04-08T14:35:53;101094.08;;;14.40;52.78
38612;BME280;24368;52.156;20.788;2023-04-08T14:40:54;101097.16;;;14.14;54.24
38612;BME280;24368;52.156;20.788;2023-04-08T14:45:55;101097.02;;;14.07;54.71
38612;BME280;24368;52.156;20.788;2023-04-08T14:50:56;101093.58;;;14.49;54.67
38612;BME280;24368;52.156;20.788;2023-04-08T14:55:58;101097.67;;;14.14;55.02
38612;BME280;24368;52.156;20.788;2023-04-08T15:00:59;101101.39;;;13.81;55.20
38612;BME280;24368;52.156;20.788;2023-04-08T15:06:01;101101.27;;;13.57;55.13
38612;BME280;24368;52.156;20.788;2023-04-08T15:11:02;101107.30;;;13.44;55.00
38612;BME280;24368;52.156;20.788;2023-04-08T15:16:03;101112.65;;;13.40;54.98
38612;BME280;24368;52.156;20.788;2023-04-08T15:21:05;101111.98;;;13.28;54.65
38612;BME280;24368;52.156;20.788;2023-04-08T15:26:08;101116.77;;;13.13;55.16
38612;BME280;24368;52.156;20.788;2023-04-08T15:31:09;101122.23;;;13.00;56.88
38612;BME280;24368;52.156;20.788;2023-04-08T15:36:11;101120.20;;;12.90;56.15
38612;BME280;24368;52.156;20.788;2023-04-08T15:41:17;101122.67;;;12.83;56.65
38612;BME280;24368;52.156;20.788;2023-04-08T15:46:19;101122.86;;;12.72;56.43
38612;BME280;24368;52.156;20.788;2023-04-08T15:51:20;101126.63;;;12.67;56.35
38612;BME280;24368;52.156;20.788;2023-04-08T15:56:21;101124.29;;;12.62;56.65
38612;BME280;24368;52.156;20.788;2023-04-08T16:01:23;101129.38;;;12.49;57.07
38612;BME280;24368;52.156;20.788;2023-04-08T16:06:24;101132.80;;;12.41;57.75
38612;BME280;24368;52.156;20.788;2023-04-08T16:11:25;101131.27;;;12.36;58.78
38612;BME280;24368;52.156;20.788;2023-04-08T16:16:27;101133.00;;;12.28;59.84
38612;BME280;24368;52.156;20.788;2023-04-08T16:21:28;101137.83;;;12.25;59.96
38612;BME280;24368;52.156;20.788;2023-04-08T16:26:30;101138.08;;;12.24;60.13
38612;BME280;24368;52.156;20.788;2023-04-08T16:31:31;101139.18;;;12.20;59.98
38612;BME280;24368;52.156;20.788;2023-04-08T16:36:32;101137.73;;;12.17;60.63
38612;BME280;24368;52.156;20.788;2023-04-08T16:41:33;101143.90;;;12.10;60.66
38612;BME280;24368;52.156;20.788;2023-04-08T16:46:34;101147.33;;;12.06;60.83
38612;BME280;24368;52.156;20.788;2023-04-08T16:51:36;101145.00;;;12.04;61.24
38612;BME280;24368;52.156;20.788;2023-04-08T16:56:37;101151.65;;;12.00;61.33
38612;BME280;24368;52.156;20.788;2023-04-08T17:01:43;101152.52;;;11.98;61.39
38612;BME280;24368;52.156;20.788;2023-04-08T17:06:45;101154.59;;;11.92;61.76
38612;BME280;24368;52.156;20.788;2023-04-08T17:11:47;101157.74;;;11.86;61.17
38612;BME280;24368;52.156;20.788;2023-04-08T17:16:48;101165.98;;;11.83;61.41
38612;BME280;24368;52.156;20.788;2023-04-08T17:21:49;101164.59;;;11.81;61.78
38612;BME280;24368;52.156;20.788;2023-04-08T17:26:50;101170.83;;;11.74;62.21
38612;BME280;24368;52.156;20.788;2023-04-08T17:31:52;101173.58;;;11.68;62.52
38612;BME280;24368;52.156;20.788;2023-04-08T17:36:53;101178.93;;;11.67;62.32
38612;BME280;24368;52.156;20.788;2023-04-08T17:41:55;101180.43;;;11.68;62.54
38612;BME280;24368;52.156;20.788;2023-04-08T17:46:56;101188.86;;;11.65;62.36
38612;BME280;24368;52.156;20.788;2023-04-08T17:51:58;101191.86;;;11.59;62.47
38612;BME280;24368;52.156;20.788;2023-04-08T17:56:59;101202.91;;;11.54;63.56
38612;BME280;24368;52.156;20.788;2023-04-08T18:02:01;101205.96;;;11.45;64.32
38612;BME280;24368;52.156;20.788;2023-04-08T18:07:02;101214.05;;;11.38;63.66
38612;BME280;24368;52.156;20.788;2023-04-08T18:12:05;101213.17;;;11.32;62.52
38612;BME280;24368;52.156;20.788;2023-04-08T18:17:06;101218.02;;;11.29;61.81
38612;BME280;24368;52.156;20.788;2023-04-08T18:22:07;101220.23;;;11.26;62.62
38612;BME280;24368;52.156;20.788;2023-04-08T18:27:09;101217.14;;;11.27;63.52
38612;BME280;24368;52.156;20.788;2023-04-08T18:32:11;101217.63;;;11.25;63.86
38612;BME280;24368;52.156;20.788;2023-04-08T18:37:12;101223.84;;;11.15;65.28
38612;BME280;24368;52.156;20.788;2023-04-08T18:42:16;101228.27;;;11.07;66.17
38612;BME280;24368;52.156;20.788;2023-04-08T18:47:17;101239.98;;;10.94;68.68
38612;BME280;24368;52.156;20.788;2023-04-08T18:52:20;101244.11;;;10.73;74.00
38612;BME280;24368;52.156;20.788;2023-04-08T18:57:21;101254.52;;;10.61;79.25
38612;BME280;24368;52.156;20.788;2023-04-08T19:02:23;101256.32;;;10.50;83.83
38612;BME280;24368;52.156;20.788;2023-04-08T19:07:25;101263.05;;;10.29;88.59
38612;BME280;24368;52.156;20.788;2023-04-08T19:12:27;101270.71;;;10.17;91.99
38612;BME280;24368;52.156;20.788;2023-04-08T19:17:29;101265.97;;;10.13;95.49
38612;BME280;24368;52.156;20.788;2023-04-08T19:22:30;101261.19;;;10.11;98.00
38612;BME280;24368;52.156;20.788;2023-04-08T19:27:32;101261.92;;;10.00;100.00
38612;BME280;24368;52.156;20.788;2023-04-08T19:32:34;101261.55;;;9.88;100.00
38612;BME280;24368;52.156;20.788;2023-04-08T19:37:36;101254.16;;;9.85;100.00
38612;BME280;24368;52.156;20.788;2023-04-08T19:42:37;101253.45;;;9.73;100.00
38612;BME280;24368;52.156;20.788;2023-04-08T19:47:42;101257.30;;;9.55;100.00
38612;BME280;24368;52.156;20.788;2023-04-08T19:52:44;101253.02;;;9.48;100.00
38612;BME280;24368;52.156;20.788;2023-04-08T19:57:45;101254.05;;;9.48;100.00
38612;BME280;24368;52.156;20.788;2023-04-08T20:02:47;101251.31;;;9.49;100.00
38612;BME280;24368;52.156;20.788;2023-04-08T20:07:48;101249.34;;;9.46;100.00
38612;BME280;24368;52.156;20.788;2023-04-08T20:12:53;101248.54;;;9.41;100.00
38612;BME280;24368;52.156;20.788;2023-04-08T20:17:54;101243.56;;;9.32;100.00
38612;BME280;24368;52.156;20.788;2023-04-08T20:22:56;101248.33;;;9.15;100.00
38612;BME280;24368;52.156;20.788;2023-04-08T20:27:57;101243.90;;;9.11;100.00
38612;BME280;24368;52.156;20.788;2023-04-08T20:32:58;101248.95;;;9.09;100.00
38612;BME280;24368;52.156;20.788;2023-04-08T20:37:59;101245.11;;;9.18;100.00
38612;BME280;24368;52.156;20.788;2023-04-08T20:43:00;101251.64;;;9.26;100.00
38612;BME280;24368;52.156;20.788;2023-04-08T20:48:03;101250.23;;;9.32;100.00
38612;BME280;24368;52.156;20.788;2023-04-08T20:53:05;101249.14;;;9.29;100.00
38612;BME280;24368;52.156;20.788;2023-04-08T20:58:07;101247.11;;;9.23;100.00
38612;BME280;24368;52.156;20.788;2023-04-08T21:03:08;101246.86;;;9.24;100.00
38612;BME280;24368;52.156;20.788;2023-04-08T21:08:10;101245.45;;;9.31;100.00
38612;BME280;24368;52.156;20.788;2023-04-08T21:13:11;101243.55;;;9.26;100.00
38612;BME280;24368;52.156;20.788;2023-04-08T21:18:12;101242.82;;;9.22;100.00
38612;BME280;24368;52.156;20.788;2023-04-08T21:23:13;101237.80;;;9.21;100.00
38612;BME280;24368;52.156;20.788;2023-04-08T21:28:14;101237.95;;;9.15;100.00
38612;BME280;24368;52.156;20.788;2023-04-08T21:33:15;101237.05;;;9.04;100.00
38612;BME280;24368;52.156;20.788;2023-04-08T21:38:16;101234.75;;;9.02;100.00
38612;BME280;24368;52.156;20.788;2023-04-08T21:43:17;101233.94;;;8.94;100.00
38612;BME280;24368;52.156;20.788;2023-04-08T21:48:19;101231.16;;;9.00;100.00
38612;BME280;24368;52.156;20.788;2023-04-08T21:53:21;101231.67;;;8.98;100.00
38612;BME280;24368;52.156;20.788;2023-04-08T21:58:23;101231.02;;;8.98;100.00
38612;BME280;24368;52.156;20.788;2023-04-08T22:03:24;101233.36;;;8.86;100.00
38612;BME280;24368;52.156;20.788;2023-04-08T22:08:26;101228.55;;;8.78;100.00
38612;BME280;24368;52.156;20.788;2023-04-08T22:13:27;101222.83;;;8.75;100.00
38612;BME280;24368;52.156;20.788;2023-04-08T22:18:28;101212.16;;;8.59;100.00
38612;BME280;24368;52.156;20.788;2023-04-08T22:23:29;101211.16;;;8.63;100.00
38612;BME280;24368;52.156;20.788;2023-04-08T22:28:31;101208.86;;;8.65;100.00
38612;BME280;24368;52.156;20.788;2023-04-08T22:33:34;101208.16;;;8.67;100.00
38612;BME280;24368;52.156;20.788;2023-04-08T22:38:35;101210.94;;;8.68;100.00
38612;BME280;24368;52.156;20.788;2023-04-08T22:43:36;101208.84;;;8.70;100.00
38612;BME280;24368;52.156;20.788;2023-04-08T22:48:37;101204.83;;;8.65;100.00
38612;BME280;24368;52.156;20.788;2023-04-08T22:53:38;101204.08;;;8.59;100.00
38612;BME280;24368;52.156;20.788;2023-04-08T22:58:39;101204.55;;;8.62;100.00
38612;BME280;24368;52.156;20.788;2023-04-08T23:03:41;101202.39;;;8.63;100.00
38612;BME280;24368;52.156;20.788;2023-04-08T23:08:42;101201.55;;;8.64;100.00
38612;BME280;24368;52.156;20.788;2023-04-08T23:13:43;101198.77;;;8.59;100.00
38612;BME280;24368;52.156;20.788;2023-04-08T23:18:44;101197.49;;;8.49;100.00
38612;BME280;24368;52.156;20.788;2023-04-08T23:23:45;101195.90;;;8.49;100.00
38612;BME280;24368;52.156;20.788;2023-04-08T23:28:46;101192.14;;;8.50;100.00
38612;BME280;24368;52.156;20.788;2023-04-08T23:33:47;101188.09;;;8.56;100.00
38612;BME280;24368;52.156;20.788;2023-04-08T23:38:49;101181.39;;;8.54;100.00
38612;BME280;24368;52.156;20.788;2023-04-08T23:43:50;101174.80;;;8.49;100.00
38612;BME280;24368;52.156;20.788;2023-04-08T23:48:52;101174.74;;;8.38;100.00
38612;BME280;24368;52.156;20.788;2023-04-08T23:53:53;101168.89;;;8.30;100.00
38612;BME280;24368;52.156;20.788;2023-04-08T23:58:54;101165.06;;;8.25;100.00
